createdAt,value
2018-02-11T00:00:08.418Z,26.00
2018-02-11T00:02:37.547Z,23.87
2018-02-11T00:05:06.634Z,26.43
2018-02-11T00:07:35.737Z,27.53
2018-02-11T00:10:05.611Z,26.37
2018-02-11T00:12:35.485Z,24.40
2018-02-11T00:15:04.603Z,24.80
2018-02-11T00:17:33.711Z,26.30
2018-02-11T00:20:03.575Z,20.43
2018-02-11T00:22:32.675Z,27.70
2018-02-11T00:25:01.757Z,25.13
2018-02-11T00:27:30.887Z,27.07
2018-02-11T00:30:00.018Z,23.97
2018-02-11T00:32:29.904Z,20.80
2018-02-11T00:35:00.313Z,26.73
2018-02-11T00:37:34.951Z,24.20
2018-02-11T00:40:04.078Z,26.20
2018-02-11T00:42:33.966Z,22.73
2018-02-11T00:45:03.070Z,27.87
2018-02-11T00:47:32.145Z,22.83
2018-02-11T00:50:01.280Z,21.63
2018-02-11T00:52:30.378Z,22.63
2018-02-11T00:55:00.253Z,21.93
2018-02-11T00:57:29.357Z,23.07
2018-02-11T00:59:58.461Z,22.23
2018-02-11T01:02:27.557Z,22.60
2018-02-11T01:04:57.454Z,26.37
2018-02-11T01:07:26.597Z,20.33
2018-02-11T01:09:55.715Z,20.57
2018-02-11T01:12:24.811Z,24.07
2018-02-11T01:14:53.917Z,26.77
2018-02-11T01:17:23.025Z,22.83
2018-02-11T01:19:52.123Z,21.90
2018-02-11T01:22:21.205Z,25.73
2018-02-11T01:24:50.326Z,22.50
2018-02-11T01:27:19.421Z,26.13
2018-02-11T01:29:48.529Z,21.47
2018-02-11T01:32:18.158Z,26.07
2018-02-11T01:34:48.042Z,24.17
2018-02-11T01:37:18.633Z,22.83
2018-02-11T01:39:47.734Z,27.00
2018-02-11T01:42:16.858Z,26.17
2018-02-11T01:44:46.686Z,25.40
2018-02-11T01:47:15.816Z,23.70
2018-02-11T01:49:45.665Z,22.07
2018-02-11T01:52:14.810Z,23.73
2018-02-11T01:54:43.896Z,24.43
2018-02-11T01:57:13.005Z,22.20
2018-02-11T01:59:42.869Z,24.40
2018-02-11T02:02:11.989Z,26.50
2018-02-11T02:04:41.096Z,25.03
2018-02-11T02:07:10.218Z,21.40
2018-02-11T02:09:40.071Z,27.90
2018-02-11T02:12:09.223Z,24.40
2018-02-11T02:14:39.066Z,23.00
2018-02-11T02:17:08.156Z,20.00
2018-02-11T02:19:37.286Z,25.17
2018-02-11T02:22:06.406Z,17.83
2018-02-11T02:24:35.531Z,21.90
2018-02-11T02:27:05.389Z,22.20
2018-02-11T02:29:34.502Z,24.37
2018-02-11T02:32:03.632Z,21.03
2018-02-11T02:34:33.520Z,24.67
2018-02-11T02:37:02.634Z,20.80
2018-02-11T02:39:32.495Z,23.33
2018-02-11T02:42:01.597Z,21.63
2018-02-11T02:44:30.688Z,20.80
2018-02-11T02:46:59.797Z,20.63
2018-02-11T02:49:28.890Z,19.40
2018-02-11T02:51:58.014Z,19.73
2018-02-11T02:54:27.878Z,21.70
2018-02-11T02:56:56.992Z,19.47
2018-02-11T02:59:26.078Z,19.07
2018-02-11T03:01:55.189Z,21.50
2018-02-11T03:04:24.298Z,17.53
2018-02-11T03:06:53.395Z,18.83
2018-02-11T03:09:22.515Z,18.30
2018-02-11T03:11:52.408Z,21.00
2018-02-11T03:14:21.503Z,22.23
2018-02-11T03:16:50.625Z,19.50
2018-02-11T03:19:20.520Z,18.67
2018-02-11T03:21:49.612Z,22.00
2018-02-11T03:24:18.709Z,21.77
2018-02-11T03:26:47.806Z,18.23
2018-02-11T03:29:16.902Z,24.93
2018-02-11T03:31:46.009Z,20.47
2018-02-11T03:34:15.102Z,16.40
2018-02-11T03:36:45.001Z,18.13
2018-02-11T03:39:14.083Z,21.93
2018-02-11T03:41:43.207Z,19.60
2018-02-11T03:44:12.285Z,18.00
2018-02-11T03:46:41.409Z,18.90
2018-02-11T03:49:10.505Z,15.53
2018-02-11T03:51:40.384Z,18.87
2018-02-11T03:54:09.482Z,15.93
2018-02-11T03:56:39.337Z,17.00
2018-02-11T03:59:09.234Z,15.43
2018-02-11T04:01:38.325Z,18.53
2018-02-11T04:04:07.448Z,18.73
2018-02-11T04:06:37.318Z,17.03
2018-02-11T04:09:06.431Z,19.23
2018-02-11T04:11:35.522Z,19.57
2018-02-11T04:14:04.612Z,15.67
2018-02-11T04:16:33.734Z,18.03
2018-02-11T04:19:03.581Z,15.93
2018-02-11T04:21:32.690Z,16.33
2018-02-11T04:24:01.781Z,16.73
2018-02-11T04:26:30.901Z,14.77
2018-02-11T04:28:59.998Z,14.40
2018-02-11T04:31:29.104Z,12.70
2018-02-11T04:33:58.245Z,14.60
2018-02-11T04:36:27.360Z,12.80
2018-02-11T04:38:56.502Z,14.43
2018-02-11T04:41:25.630Z,14.47
2018-02-11T04:43:55.468Z,13.60
2018-02-11T04:46:24.546Z,15.33
2018-02-11T04:48:53.661Z,17.83
2018-02-11T04:51:22.762Z,16.70
2018-02-11T04:53:52.640Z,14.67
2018-02-11T04:56:22.481Z,11.20
2018-02-11T04:58:51.602Z,16.43
2018-02-11T05:01:20.710Z,13.57
2018-02-11T05:03:49.805Z,13.73
2018-02-11T05:06:18.933Z,14.77
2018-02-11T05:08:48.785Z,15.97
2018-02-11T05:11:17.888Z,18.63
2018-02-11T05:13:46.986Z,14.07
2018-02-11T05:16:16.089Z,11.30
2018-02-11T05:18:45.183Z,13.20
2018-02-11T05:21:14.278Z,13.33
2018-02-11T05:23:44.283Z,13.57
2018-02-11T05:26:13.398Z,17.20
2018-02-11T05:28:42.520Z,13.00
2018-02-11T05:31:11.593Z,11.30
2018-02-11T05:33:40.679Z,13.83
2018-02-11T05:36:09.774Z,11.33
2018-02-11T05:38:39.203Z,9.80
2018-02-11T05:41:08.305Z,8.63
2018-02-11T05:43:37.404Z,10.70
2018-02-11T05:46:06.501Z,13.43
2018-02-11T05:48:36.374Z,9.80
2018-02-11T05:51:05.461Z,10.57
2018-02-11T05:53:34.551Z,8.20
2018-02-11T05:56:03.651Z,12.23
2018-02-11T05:58:32.746Z,7.70
2018-02-11T06:01:01.849Z,10.50
2018-02-11T06:03:30.928Z,10.40
2018-02-11T06:06:00.014Z,6.93
2018-02-11T06:08:29.106Z,10.37
2018-02-11T06:10:58.198Z,7.50
2018-02-11T06:13:28.069Z,7.70
2018-02-11T06:15:57.167Z,6.83
2018-02-11T06:18:27.315Z,8.00
2018-02-11T06:20:56.403Z,9.10
2018-02-11T06:23:25.485Z,8.60
2018-02-11T06:25:54.591Z,6.30
2018-02-11T06:28:23.677Z,7.70
2018-02-11T06:30:52.791Z,8.90
2018-02-11T06:33:21.896Z,7.10
2018-02-11T06:35:50.988Z,6.67
2018-02-11T06:38:20.846Z,8.70
2018-02-11T06:40:49.941Z,9.13
2018-02-11T06:43:19.022Z,7.70
2018-02-11T06:45:48.158Z,10.63
2018-02-11T06:48:17.271Z,5.50
2018-02-11T06:50:46.393Z,6.70
2018-02-11T06:53:15.498Z,11.47
2018-02-11T06:55:44.591Z,5.53
2018-02-11T06:58:14.462Z,7.73
2018-02-11T07:00:44.313Z,6.17
2018-02-11T07:03:14.186Z,7.93
2018-02-11T07:05:43.286Z,6.40
2018-02-11T07:08:12.408Z,8.67
2018-02-11T07:10:42.276Z,6.83
2018-02-11T07:13:11.354Z,11.80
2018-02-11T07:15:40.431Z,6.53
2018-02-11T07:18:09.521Z,8.07
2018-02-11T07:20:39.369Z,8.97
2018-02-11T07:23:08.461Z,5.67
2018-02-11T07:25:38.322Z,5.90
2018-02-11T07:28:08.189Z,9.73
2018-02-11T07:30:37.292Z,5.23
2018-02-11T07:33:06.373Z,6.80
2018-02-11T07:35:35.479Z,5.57
2018-02-11T07:38:04.562Z,4.20
2018-02-11T07:40:33.670Z,7.10
2018-02-11T07:43:02.756Z,6.00
2018-02-11T07:45:31.857Z,4.53
2018-02-11T07:48:00.939Z,3.60
2018-02-11T07:50:30.068Z,7.07
2018-02-11T07:52:59.124Z,6.73
2018-02-11T07:55:28.234Z,3.97
2018-02-11T07:57:57.319Z,4.30
2018-02-11T08:00:27.205Z,10.80
2018-02-11T08:02:57.066Z,5.80
2018-02-11T08:05:27.099Z,4.53
2018-02-11T08:07:56.183Z,4.10
2018-02-11T08:10:25.254Z,5.63
2018-02-11T08:12:54.373Z,2.50
2018-02-11T08:15:23.456Z,3.40
2018-02-11T08:17:52.562Z,3.97
2018-02-11T08:20:21.620Z,3.37
2018-02-11T08:22:50.750Z,4.43
2018-02-11T08:25:19.830Z,3.20
2018-02-11T08:27:48.936Z,3.30
2018-02-11T08:30:18.030Z,3.30
2018-02-11T08:32:47.158Z,3.97
2018-02-11T08:35:16.272Z,4.37
2018-02-11T08:37:46.119Z,4.00
2018-02-11T08:40:15.201Z,3.87
2018-02-11T08:42:45.094Z,3.00
2018-02-11T08:45:15.114Z,3.73
2018-02-11T08:47:44.184Z,8.60
2018-02-11T08:50:13.320Z,3.50
2018-02-11T08:52:43.154Z,5.33
2018-02-11T08:55:13.348Z,3.10
2018-02-11T08:57:42.448Z,4.37
2018-02-11T09:00:11.577Z,4.70
2018-02-11T09:02:40.674Z,4.87
2018-02-11T09:05:09.762Z,5.00
2018-02-11T09:07:39.598Z,4.10
2018-02-11T09:10:08.756Z,4.43
2018-02-11T09:12:37.830Z,3.40
2018-02-11T09:15:06.941Z,4.50
2018-02-11T09:17:36.017Z,4.10
2018-02-11T09:20:05.115Z,4.97
2018-02-11T09:22:34.223Z,4.83
2018-02-11T09:25:04.106Z,3.23
2018-02-11T09:27:34.238Z,3.10
2018-02-11T09:30:03.345Z,7.03
2018-02-11T09:32:32.438Z,4.13
2018-02-11T09:35:02.353Z,3.43
2018-02-11T09:37:31.469Z,3.70
2018-02-11T09:40:01.341Z,4.63
2018-02-11T09:42:30.444Z,3.13
2018-02-11T09:44:59.541Z,2.70
2018-02-11T09:47:28.661Z,4.50
2018-02-11T09:49:58.530Z,4.07
2018-02-11T09:52:27.639Z,5.00
2018-02-11T09:54:56.738Z,4.53
2018-02-11T09:57:25.850Z,2.80
2018-02-11T09:59:55.712Z,7.70
2018-02-11T10:02:24.804Z,5.03
2018-02-11T10:04:54.661Z,14.90
2018-02-11T10:07:23.729Z,3.33
2018-02-11T10:09:52.842Z,4.03
2018-02-11T10:12:21.957Z,9.40
2018-02-11T10:14:51.060Z,5.00
2018-02-11T10:17:20.157Z,5.20
2018-02-11T10:19:49.239Z,4.93
2018-02-11T10:22:18.353Z,6.37
2018-02-11T10:24:47.449Z,9.93
2018-02-11T10:27:16.538Z,11.47
2018-02-11T10:29:45.633Z,3.00
2018-02-11T10:32:16.246Z,5.00
2018-02-11T10:34:45.394Z,5.83
2018-02-11T10:37:15.234Z,5.80
2018-02-11T10:39:44.325Z,4.10
2018-02-11T10:42:13.433Z,4.83
2018-02-11T10:44:42.530Z,4.00
2018-02-11T10:47:11.622Z,4.37
2018-02-11T10:49:40.726Z,5.20
2018-02-11T10:52:09.836Z,4.33
2018-02-11T10:54:39.770Z,3.97
2018-02-11T10:57:09.919Z,5.00
2018-02-11T10:59:39.770Z,4.13
2018-02-11T11:02:09.620Z,4.53
2018-02-11T11:04:40.248Z,5.63
2018-02-11T11:07:09.323Z,4.43
2018-02-11T11:09:38.399Z,4.37
2018-02-11T11:12:07.499Z,5.10
2018-02-11T11:14:36.582Z,5.37
2018-02-11T11:17:05.694Z,3.07
2018-02-11T11:19:34.860Z,4.30
2018-02-11T11:22:04.740Z,3.10
2018-02-11T11:24:33.826Z,3.27
2018-02-11T11:27:02.934Z,5.63
2018-02-11T11:29:32.043Z,4.17
2018-02-11T11:32:01.128Z,16.57
2018-02-11T11:34:30.247Z,3.70
2018-02-11T11:37:00.101Z,3.43
2018-02-11T11:39:29.228Z,5.10
2018-02-11T11:41:58.359Z,3.40
2018-02-11T11:44:27.468Z,2.83
2018-02-11T11:46:56.608Z,5.20
2018-02-11T11:49:25.702Z,4.67
2018-02-11T11:51:54.815Z,6.20
2018-02-11T11:54:23.911Z,4.90
2018-02-11T11:56:53.038Z,8.03
2018-02-11T11:59:22.879Z,5.17
2018-02-11T12:01:51.993Z,4.47
2018-02-11T12:04:22.050Z,5.03
2018-02-11T12:06:51.938Z,4.00
2018-02-11T12:09:21.828Z,4.27
2018-02-11T12:11:50.992Z,8.37
2018-02-11T12:14:20.075Z,3.10
2018-02-11T12:16:49.177Z,3.73
2018-02-11T12:19:18.269Z,5.73
2018-02-11T12:21:48.150Z,3.70
2018-02-11T12:24:17.217Z,5.60
2018-02-11T12:26:46.305Z,5.93
2018-02-11T12:29:15.419Z,3.67
2018-02-11T12:31:44.524Z,4.63
2018-02-11T12:34:13.631Z,3.20
2018-02-11T12:36:42.919Z,3.90
2018-02-11T12:39:12.023Z,3.90
2018-02-11T12:41:41.116Z,2.60
2018-02-11T12:44:10.227Z,2.30
2018-02-11T12:46:40.813Z,3.77
2018-02-11T12:49:09.914Z,4.70
2018-02-11T12:51:38.999Z,3.53
2018-02-11T12:54:08.138Z,4.20
2018-02-11T12:56:37.249Z,2.83
2018-02-11T12:59:06.317Z,3.83
2018-02-11T13:01:35.486Z,5.47
2018-02-11T13:04:04.554Z,5.97
2018-02-11T13:06:34.415Z,4.43
2018-02-11T13:09:03.508Z,5.37
2018-02-11T13:11:33.393Z,3.97
2018-02-11T13:14:03.247Z,2.73
2018-02-11T13:16:32.351Z,5.93
2018-02-11T13:19:01.454Z,3.53
2018-02-11T13:21:31.286Z,5.80
2018-02-11T13:24:01.131Z,4.70
2018-02-11T13:26:30.230Z,5.63
2018-02-11T13:28:59.338Z,2.80
2018-02-11T13:31:28.443Z,6.47
2018-02-11T13:33:57.541Z,3.93
2018-02-11T13:36:26.632Z,4.90
2018-02-11T13:38:55.745Z,7.60
2018-02-11T13:41:24.822Z,3.67
2018-02-11T13:43:53.932Z,5.00
2018-02-11T13:46:26.622Z,4.43
2018-02-11T13:48:55.746Z,4.27
2018-02-11T13:51:25.592Z,3.20
2018-02-11T13:53:54.714Z,4.67
2018-02-11T13:56:23.797Z,4.00
2018-02-11T13:58:52.906Z,4.50
2018-02-11T14:01:21.997Z,3.70
2018-02-11T14:03:51.849Z,5.00
2018-02-11T14:06:22.717Z,5.33
2018-02-11T14:08:51.830Z,3.30
2018-02-11T14:11:21.210Z,3.67
2018-02-11T14:13:51.812Z,4.80
2018-02-11T14:16:21.022Z,4.50
2018-02-11T14:18:52.131Z,3.80
2018-02-11T14:21:21.244Z,3.27
2018-02-11T14:23:51.269Z,2.97
2018-02-11T14:26:21.803Z,3.13
2018-02-11T14:28:51.658Z,2.80
2018-02-11T14:31:20.754Z,4.37
2018-02-11T14:33:49.858Z,13.13
2018-02-11T14:36:20.358Z,3.67
2018-02-11T14:38:50.253Z,2.83
2018-02-11T14:41:19.329Z,3.97
2018-02-11T14:43:48.435Z,6.87
2018-02-11T14:46:17.529Z,3.80
2018-02-11T14:48:47.691Z,4.27
2018-02-11T14:51:17.564Z,3.30
2018-02-11T14:53:47.259Z,6.10
2018-02-11T14:56:18.094Z,5.30
2018-02-11T14:58:47.235Z,3.97
2018-02-11T15:01:18.035Z,5.93
2018-02-11T15:03:48.662Z,7.37
2018-02-11T15:06:17.770Z,5.77
2018-02-11T15:08:46.842Z,7.60
2018-02-11T15:11:16.695Z,4.23
2018-02-11T15:13:46.525Z,4.87
2018-02-11T15:16:15.657Z,11.07
2018-02-11T15:18:44.757Z,5.00
2018-02-11T15:21:13.908Z,3.93
2018-02-11T15:23:43.768Z,7.47
2018-02-11T15:26:12.872Z,8.30
2018-02-11T15:28:42.017Z,4.20
2018-02-11T15:31:11.877Z,4.30
2018-02-11T15:33:41.744Z,4.57
2018-02-11T15:36:11.589Z,7.03
2018-02-11T15:38:40.694Z,3.70
2018-02-11T15:41:09.791Z,4.80
2018-02-11T15:43:38.910Z,5.40
2018-02-11T15:46:08.012Z,6.60
2018-02-11T15:48:37.119Z,5.20
2018-02-11T15:51:07.009Z,4.63
2018-02-11T15:53:36.120Z,5.40
2018-02-11T15:56:05.244Z,4.70
2018-02-11T15:58:35.086Z,6.50
2018-02-11T16:01:04.165Z,2.77
2018-02-11T16:03:33.284Z,7.93
2018-02-11T16:06:02.410Z,10.70
2018-02-11T16:08:31.502Z,4.20
2018-02-11T16:11:01.375Z,5.67
2018-02-11T16:26:38.959Z,3.30
2018-02-11T16:29:08.063Z,8.17
2018-02-11T16:31:37.952Z,5.73
2018-02-11T16:34:07.848Z,7.03
2018-02-11T16:36:36.951Z,9.63
2018-02-11T16:39:06.029Z,3.40
2018-02-11T16:41:35.909Z,5.80
2018-02-11T16:44:05.917Z,4.23
2018-02-11T16:46:35.009Z,3.80
2018-02-11T16:49:04.141Z,4.90
2018-02-11T16:51:33.998Z,7.40
2018-02-11T16:54:03.503Z,11.20
2018-02-11T16:56:32.614Z,5.20
2018-02-11T16:59:01.727Z,6.60
2018-02-11T17:01:30.806Z,7.47
2018-02-11T17:03:59.918Z,5.53
2018-02-11T17:06:29.002Z,4.40
2018-02-11T17:08:58.888Z,6.90
2018-02-11T17:11:27.972Z,3.43
2018-02-11T17:13:57.119Z,11.03
2018-02-11T17:16:26.960Z,8.10
2018-02-11T17:18:56.057Z,3.30
2018-02-11T17:21:26.150Z,5.87
2018-02-11T17:23:56.957Z,8.10
2018-02-11T17:26:26.846Z,3.93
2018-02-11T17:28:55.981Z,7.30
2018-02-11T17:31:25.865Z,2.40
2018-02-11T17:33:55.004Z,8.83
2018-02-11T17:36:24.869Z,4.77
2018-02-11T17:38:53.960Z,7.33
2018-02-11T17:41:23.099Z,6.70
2018-02-11T17:43:52.933Z,3.67
2018-02-11T17:46:22.095Z,2.77
2018-02-11T17:48:51.206Z,4.03
2018-02-11T17:51:21.063Z,3.73
2018-02-11T17:53:50.178Z,6.13
2018-02-11T17:56:19.279Z,3.73
2018-02-11T17:58:48.365Z,2.70
2018-02-11T18:01:17.461Z,5.10
2018-02-11T18:03:46.586Z,4.63
2018-02-11T18:06:15.719Z,8.37
2018-02-11T18:08:44.932Z,6.63
2018-02-11T18:11:15.162Z,5.27
2018-02-11T18:13:45.069Z,4.63
2018-02-11T18:16:14.149Z,6.77
2018-02-11T18:18:43.278Z,5.00
2018-02-11T18:21:12.361Z,7.10
2018-02-11T18:23:41.484Z,7.93
2018-02-11T18:26:11.361Z,4.70
2018-02-11T18:28:40.446Z,5.40
2018-02-11T18:31:09.578Z,18.87
2018-02-11T18:33:39.462Z,6.00
2018-02-11T18:36:09.385Z,7.43
2018-02-11T18:38:38.463Z,8.00
2018-02-11T18:41:08.319Z,7.00
2018-02-11T18:43:37.427Z,8.10
2018-02-11T18:46:06.537Z,9.03
2018-02-11T18:48:35.673Z,4.77
2018-02-11T18:51:04.774Z,4.70
2018-02-11T18:53:33.890Z,10.77
2018-02-11T18:56:02.987Z,5.43
2018-02-11T18:58:32.122Z,7.60
2018-02-11T19:01:01.240Z,7.80
2018-02-11T19:03:30.379Z,12.53
2018-02-11T19:05:59.490Z,4.27
2018-02-11T19:08:29.363Z,5.93
2018-02-11T19:10:59.247Z,4.33
2018-02-11T19:13:29.829Z,5.37
2018-02-11T19:15:58.978Z,7.37
2018-02-11T19:18:28.783Z,7.63
2018-02-11T19:20:58.672Z,8.57
2018-02-11T19:23:27.796Z,5.60
2018-02-11T19:25:56.874Z,9.67
2018-02-11T19:28:25.998Z,7.47
2018-02-11T19:30:55.954Z,8.80
2018-02-11T19:33:25.054Z,8.40
2018-02-11T19:35:54.199Z,11.63
2018-02-11T19:38:23.336Z,10.37
2018-02-11T19:40:53.485Z,5.40
2018-02-11T19:43:22.552Z,5.80
2018-02-11T19:45:51.648Z,5.87
2018-02-11T19:48:20.766Z,11.77
2018-02-11T19:50:49.874Z,12.97
2018-02-11T19:53:18.969Z,8.33
2018-02-11T19:55:48.141Z,16.37
2018-02-11T19:58:17.213Z,13.50
2018-02-11T20:00:46.351Z,7.53
2018-02-11T20:03:15.429Z,13.10
2018-02-11T20:05:44.560Z,7.20
2018-02-11T20:08:13.673Z,7.80
2018-02-11T20:10:44.307Z,10.77
2018-02-11T20:13:13.429Z,11.63
2018-02-11T20:15:42.549Z,9.40
2018-02-11T20:18:11.675Z,5.43
2018-02-11T20:20:40.762Z,9.00
2018-02-11T20:23:09.878Z,5.23
2018-02-11T20:25:38.950Z,6.13
2018-02-11T20:28:08.072Z,18.80
2018-02-11T20:30:37.165Z,8.50
2018-02-11T20:33:06.297Z,11.83
2018-02-11T20:35:36.172Z,7.20
2018-02-11T20:38:05.286Z,6.77
2018-02-11T20:40:34.388Z,7.83
2018-02-11T20:43:04.274Z,14.03
2018-02-11T20:45:33.397Z,7.20
2018-02-11T20:48:02.473Z,9.73
2018-02-11T20:50:31.632Z,9.60
2018-02-11T20:53:00.743Z,7.30
2018-02-11T20:55:29.870Z,11.10
2018-02-11T20:57:58.943Z,9.70
2018-02-11T21:00:28.070Z,11.63
2018-02-11T21:02:57.955Z,8.63
2018-02-11T21:05:27.053Z,12.33
2018-02-11T21:07:56.187Z,8.33
2018-02-11T21:10:26.117Z,7.23
2018-02-11T21:12:55.981Z,11.50
2018-02-11T21:15:25.370Z,8.73
2018-02-11T21:17:54.448Z,14.97
2018-02-11T21:20:24.670Z,10.33
2018-02-11T21:22:53.765Z,10.23
2018-02-11T21:25:22.864Z,13.43
2018-02-11T21:27:52.762Z,10.10
2018-02-11T21:30:21.877Z,17.67
2018-02-11T21:32:50.974Z,15.10
2018-02-11T21:35:20.098Z,15.27
2018-02-11T21:37:49.210Z,13.47
2018-02-11T21:40:18.286Z,11.23
2018-02-11T21:42:47.389Z,14.87
2018-02-11T21:45:16.502Z,8.70
2018-02-11T21:47:45.616Z,9.93
2018-02-11T21:50:15.454Z,15.20
2018-02-11T21:52:44.591Z,18.10
2018-02-11T21:55:13.719Z,16.83
2018-02-11T21:57:43.590Z,19.23
2018-02-11T22:00:12.721Z,11.53
2018-02-11T22:02:41.809Z,14.23
2018-02-11T22:05:11.714Z,16.07
2018-02-11T22:07:40.807Z,13.90
2018-02-11T22:10:10.679Z,15.13
2018-02-11T22:12:39.764Z,12.67
2018-02-11T22:15:08.890Z,11.33
2018-02-11T22:17:37.987Z,9.93
2018-02-11T22:20:07.099Z,10.60
2018-02-11T22:22:36.201Z,14.63
2018-02-11T22:25:05.326Z,12.20
2018-02-11T22:27:35.182Z,7.33
2018-02-11T22:30:04.293Z,11.73
2018-02-11T22:32:33.385Z,11.17
2018-02-11T22:35:02.493Z,14.70
2018-02-11T22:37:31.614Z,14.13
2018-02-11T22:40:01.540Z,10.37
2018-02-11T22:42:30.627Z,6.07
2018-02-11T22:44:59.708Z,12.57
2018-02-11T22:47:28.813Z,13.50
2018-02-11T22:49:58.636Z,6.13
2018-02-11T22:52:28.510Z,10.40
2018-02-11T22:54:57.598Z,6.73
2018-02-11T22:57:26.696Z,4.60
2018-02-11T22:59:55.774Z,3.87
2018-02-11T23:02:24.906Z,1.90
2018-02-11T23:04:53.970Z,3.00
2018-02-11T23:07:23.040Z,4.70
2018-02-11T23:09:52.157Z,3.43
2018-02-11T23:12:21.216Z,4.20
2018-02-11T23:14:50.318Z,5.20
2018-02-11T23:17:20.183Z,3.10
2018-02-11T23:19:52.138Z,3.90
2018-02-11T23:22:21.254Z,4.37
2018-02-11T23:24:50.335Z,2.47
2018-02-11T23:27:19.429Z,4.10
2018-02-11T23:29:48.528Z,4.47
2018-02-11T23:32:17.580Z,4.93
2018-02-11T23:34:46.699Z,3.07
2018-02-11T23:37:15.782Z,9.23
2018-02-11T23:39:44.906Z,3.93
2018-02-11T23:42:13.989Z,3.97
2018-02-11T23:44:43.085Z,8.63
2018-02-11T23:47:12.169Z,4.40
2018-02-11T23:49:41.279Z,7.93
2018-02-11T23:52:10.375Z,5.83
2018-02-11T23:54:39.461Z,3.93
2018-02-11T23:57:08.584Z,6.47
2018-02-11T23:59:37.672Z,2.73
